Time;durP1;ratioP1;P1;durP2;ratioP2;P2;SDS_P1;SDS_P2;PMS_P1;PMS_P2;Temp;Humidity;BMP_temperature;BMP_pressure;BME280_temperature;BME280_humidity;BME280_pressure;Samples;Min_cycle;Max_cycle;Signal;HPM_P1;HPM_P2
2023/12/13 00:02:32;;;;;;;7.75;7.05;;;;;;;10.04;100.00;98533.22;10274100;28;20054;-65
2023/12/13 00:07:33;;;;;;;7.43;6.65;;;;;;;10.06;100.00;98536.56;10285512;28;20133;-65
2023/12/13 00:12:36;;;;;;;8.18;7.38;;;;;;;10.03;100.00;98527.09;10305395;28;20061;-64
2023/12/13 00:17:37;;;;;;;7.82;7.13;;;;;;;10.04;100.00;98522.59;10292879;28;20188;-66
2023/12/13 00:22:39;;;;;;;9.52;7.13;;;;;;;10.02;100.00;98525.41;10296045;28;20057;-66
2023/12/13 00:27:41;;;;;;;8.57;7.78;;;;;;;10.03;100.00;98520.94;10301869;28;20058;-66
2023/12/13 00:32:43;;;;;;;7.97;7.18;;;;;;;10.04;100.00;98517.28;10308781;28;20065;-66
2023/12/13 00:37:44;;;;;;;7.18;6.47;;;;;;;9.99;100.00;98498.34;10291087;28;20042;-65
2023/12/13 00:42:45;;;;;;;9.55;6.45;;;;;;;10.03;100.00;98505.00;10295218;28;20202;-65
2023/12/13 00:47:47;;;;;;;6.10;5.50;;;;;;;10.03;100.00;98519.09;10284049;28;20061;-66
2023/12/13 00:52:49;;;;;;;5.82;5.28;;;;;;;9.94;100.00;98505.94;10309218;28;20050;-67
2023/12/13 00:57:50;;;;;;;6.35;5.07;;;;;;;9.72;100.00;98471.84;10295963;28;20073;-65
2023/12/13 01:02:52;;;;;;;5.50;4.78;;;;;;;9.89;100.00;98493.13;10298408;28;20054;-65
2023/12/13 01:07:54;;;;;;;4.75;4.20;;;;;;;9.88;100.00;98500.28;10290322;28;20070;-65
2023/12/13 01:12:55;;;;;;;4.07;3.67;;;;;;;9.82;100.00;98487.66;10312583;28;20058;-65
2023/12/13 01:17:57;;;;;;;4.78;3.50;;;;;;;9.84;100.00;98492.81;10299894;28;20109;-65
2023/12/13 01:22:59;;;;;;;5.03;3.50;;;;;;;9.85;100.00;98495.31;10291923;28;20054;-65
2023/12/13 01:28:01;;;;;;;2.92;2.22;;;;;;;9.84;100.00;98484.84;10283903;28;20142;-67
2023/12/13 01:33:03;;;;;;;3.88;2.88;;;;;;;9.85;100.00;98497.13;10294923;28;20046;-65
2023/12/13 01:38:06;;;;;;;4.60;2.33;;;;;;;9.99;100.00;98530.22;10306444;28;20053;-68
2023/12/13 01:43:20;;;;;;;7.18;5.80;;;;;;;9.77;100.00;98527.16;10294330;28;20126;-66
2023/12/13 01:48:25;;;;;;;5.85;5.05;;;;;;;9.46;100.00;98519.72;10292472;28;20570;-67
2023/12/13 01:53:30;;;;;;;4.78;4.25;;;;;;;9.47;100.00;98526.72;10289351;28;20051;-63
2023/12/13 01:58:32;;;;;;;4.55;4.10;;;;;;;9.65;100.00;98528.44;10290821;28;20574;-66
2023/12/13 02:03:35;;;;;;;4.43;3.80;;;;;;;9.71;100.00;98522.47;10305751;28;20529;-67
2023/12/13 02:08:37;;;;;;;3.70;3.40;;;;;;;9.78;100.00;98522.69;10291213;28;20590;-65
2023/12/13 02:13:39;;;;;;;5.13;3.20;;;;;;;9.86;100.00;98517.38;10301236;28;20753;-65
2023/12/13 02:18:40;;;;;;;5.30;3.22;;;;;;;9.87;100.00;98508.44;10322297;28;20253;-65
2023/12/13 02:23:42;;;;;;;7.97;3.50;;;;;;;9.87;100.00;98506.59;10307104;28;20748;-65
2023/12/13 02:28:44;;;;;;;5.30;3.53;;;;;;;9.72;100.00;98484.31;10304637;28;20046;-65
2023/12/13 02:33:46;;;;;;;4.97;2.75;;;;;;;9.81;100.00;98506.41;10297799;28;20050;-66
2023/12/13 02:38:47;;;;;;;5.22;3.63;;;;;;;9.70;100.00;98494.28;10297942;28;20081;-65
2023/12/13 02:43:49;;;;;;;5.20;3.40;;;;;;;9.80;100.00;98500.25;10296326;28;20046;-63
2023/12/13 02:48:50;;;;;;;5.93;3.67;;;;;;;9.73;100.00;98499.25;10294568;28;20041;-63
2023/12/13 02:53:52;;;;;;;4.43;3.67;;;;;;;9.72;100.00;98502.91;10290948;28;20065;-63
2023/12/13 02:58:53;;;;;;;5.43;3.72;;;;;;;9.76;100.00;98498.09;10297168;28;20602;-63
2023/12/13 03:03:55;;;;;;;4.40;3.38;;;;;;;9.72;100.00;98486.97;10300602;28;20073;-63
2023/12/13 03:08:57;;;;;;;6.60;2.97;;;;;;;9.71;100.00;98485.28;10294769;28;20054;-61
2023/12/13 03:14:00;;;;;;;3.88;2.97;;;;;;;9.69;100.00;98482.78;10286694;28;21643;-62
2023/12/13 03:19:01;;;;;;;4.75;3.17;;;;;;;9.60;100.00;98472.31;10292430;28;20867;-63
2023/12/13 03:24:03;;;;;;;5.13;2.90;;;;;;;9.63;100.00;98477.31;10298200;28;20708;-63
2023/12/13 03:29:05;;;;;;;3.58;2.20;;;;;;;9.48;100.00;98464.63;10294810;28;20218;-63
2023/12/13 03:34:06;;;;;;;3.05;2.00;;;;;;;9.59;100.00;98471.47;10294027;28;20046;-63
2023/12/13 03:39:08;;;;;;;3.00;2.35;;;;;;;9.55;100.00;98470.97;10298954;28;20145;-61
2023/12/13 03:44:10;;;;;;;2.70;2.05;;;;;;;9.62;100.00;98476.44;10292806;28;20060;-62
2023/12/13 03:49:11;;;;;;;3.47;2.30;;;;;;;9.63;100.00;98472.00;10295187;28;20160;-63
2023/12/13 03:54:13;;;;;;;4.55;2.17;;;;;;;9.69;100.00;98476.66;10295720;28;20493;-62
2023/12/13 03:59:15;;;;;;;6.05;2.35;;;;;;;9.67;100.00;98483.97;10293608;28;20058;-63
2023/12/13 04:04:17;;;;;;;4.82;1.90;;;;;;;9.67;100.00;98471.50;10277023;28;20054;-62
2023/12/13 04:09:19;;;;;;;5.93;2.35;;;;;;;9.68;100.00;98474.97;10303775;28;20653;-63
2023/12/13 04:14:20;;;;;;;3.97;2.17;;;;;;;9.68;100.00;98467.00;10294368;28;20528;-63
2023/12/13 04:19:22;;;;;;;4.82;2.30;;;;;;;9.71;100.00;98469.34;10299930;28;20077;-64
2023/12/13 04:24:23;;;;;;;2.22;1.15;;;;;;;9.72;100.00;98460.38;10296410;28;20073;-64
2023/12/13 04:29:24;;;;;;;5.50;1.45;;;;;;;9.68;100.00;98459.03;10300147;28;20050;-62
2023/12/13 04:34:26;;;;;;;4.32;1.60;;;;;;;9.58;100.00;98445.06;10292163;28;20053;-61
2023/12/13 04:39:28;;;;;;;3.63;1.67;;;;;;;9.69;100.00;98463.38;10289741;28;20046;-66
2023/12/13 04:44:30;;;;;;;2.50;1.45;;;;;;;9.63;100.00;98456.06;10291814;28;20051;-65
2023/12/13 04:49:32;;;;;;;4.28;1.50;;;;;;;9.65;100.00;98457.56;10301887;28;20796;-66
2023/12/13 04:54:35;;;;;;;4.13;1.83;;;;;;;9.69;100.00;98450.09;10295612;28;20058;-66
2023/12/13 04:59:37;;;;;;;5.20;1.90;;;;;;;9.67;100.00;98452.09;10275199;28;20196;-66
2023/12/13 05:04:38;;;;;;;3.75;1.98;;;;;;;9.62;100.00;98444.56;10291413;28;20403;-66
2023/12/13 05:09:40;;;;;;;2.47;1.25;;;;;;;9.68;100.00;98456.38;10290507;28;20105;-66
2023/12/13 05:14:42;;;;;;;4.05;1.48;;;;;;;9.69;100.00;98450.09;10294975;28;20683;-66
2023/12/13 05:19:44;;;;;;;7.03;2.03;;;;;;;9.69;100.00;98461.53;10291518;28;20046;-65
2023/12/13 05:24:45;;;;;;;5.22;1.85;;;;;;;9.67;100.00;98449.44;10291030;28;20846;-65
2023/12/13 05:29:47;;;;;;;4.97;1.80;;;;;;;9.64;100.00;98437.28;10300506;28;20582;-65
2023/12/13 05:34:48;;;;;;;5.03;1.80;;;;;;;9.62;100.00;98439.25;10288435;28;20140;-65
2023/12/13 05:39:50;;;;;;;6.50;2.55;;;;;;;9.62;100.00;98433.13;10296125;28;20262;-65
2023/12/13 05:44:52;;;;;;;3.88;2.00;;;;;;;9.49;100.00;98425.63;10314044;28;20056;-65
2023/12/13 05:49:53;;;;;;;4.15;2.25;;;;;;;9.44;100.00;98431.41;10304506;28;20054;-65
2023/12/13 05:54:55;;;;;;;9.38;2.42;;;;;;;9.46;100.00;98418.00;10299875;28;20096;-67
2023/12/13 05:59:57;;;;;;;4.40;3.08;;;;;;;9.36;100.00;98418.94;10297531;28;20091;-67
2023/12/13 06:04:58;;;;;;;4.47;2.15;;;;;;;9.32;100.00;98422.91;10310187;28;20606;-67
2023/12/13 06:10:04;;;;;;;4.57;1.83;;;;;;;9.38;100.00;98432.03;10296086;28;20144;-68
2023/12/13 06:15:06;;;;;;;6.68;2.47;;;;;;;9.41;100.00;98430.91;10296928;28;20065;-71
2023/12/13 06:20:08;;;;;;;3.58;2.13;;;;;;;9.44;100.00;98420.78;10303749;28;20054;-66
2023/12/13 06:25:10;;;;;;;6.47;3.55;;;;;;;9.49;100.00;98426.44;10308278;28;20112;-66
2023/12/13 06:30:12;;;;;;;5.07;1.90;;;;;;;9.48;100.00;98427.44;10301369;28;20057;-66
2023/12/13 06:35:14;;;;;;;3.95;1.75;;;;;;;9.45;100.00;98434.91;10290720;28;20198;-66
2023/12/13 06:40:16;;;;;;;5.88;2.22;;;;;;;9.33;100.00;98429.06;10303309;28;20054;-66
2023/12/13 06:45:18;;;;;;;4.25;2.13;;;;;;;9.34;100.00;98420.94;10272190;28;20050;-65
2023/12/13 06:50:21;;;;;;;7.43;2.00;;;;;;;9.12;100.00;98390.47;10290477;28;20054;-67
2023/12/13 06:55:22;;;;;;;3.10;2.08;;;;;;;9.40;100.00;98424.78;10301683;28;20065;-65
2023/12/13 07:00:27;;;;;;;3.63;2.20;;;;;;;9.36;100.00;98402.19;10304093;28;20058;-68
2023/12/13 07:05:29;;;;;;;5.43;2.67;;;;;;;9.35;100.00;98397.84;10301433;28;20061;-67
2023/12/13 07:10:31;;;;;;;7.68;2.10;;;;;;;9.47;100.00;98409.00;10293907;28;20058;-65
2023/12/13 07:15:32;;;;;;;3.83;2.30;;;;;;;9.45;100.00;98398.53;10298594;28;20080;-67
2023/12/13 07:20:34;;;;;;;3.78;2.40;;;;;;;9.48;100.00;98406.19;10311298;28;20064;-67
2023/12/13 07:25:37;;;;;;;4.05;1.88;;;;;;;9.47;100.00;98406.34;10309037;28;20045;-64
2023/12/13 07:30:38;;;;;;;5.13;2.42;;;;;;;9.38;100.00;98394.88;10304842;28;20428;-65
2023/12/13 07:35:52;;;;;;;4.63;2.53;;;;;;;9.49;100.00;98396.41;10311387;28;20584;-67
2023/12/13 07:40:54;;;;;;;4.07;1.60;;;;;;;9.55;100.00;98399.25;10292103;28;20070;-67
2023/12/13 07:45:58;;;;;;;;;;;;;;;9.46;100.00;98402.88;10314564;28;20052;-66
2023/12/13 07:50:59;;;;;;;7.05;2.55;;;;;;;9.47;100.00;98404.56;10299777;28;19926;-65
2023/12/13 07:56:01;;;;;;;4.13;2.22;;;;;;;9.43;100.00;98400.53;10292079;28;20065;-65
2023/12/13 08:01:02;;;;;;;9.38;2.97;;;;;;;9.53;100.00;98403.03;10292446;28;20119;-68
2023/12/13 08:06:10;;;;;;;4.13;2.30;;;;;;;9.55;100.00;98412.53;10297084;28;20167;-67
2023/12/13 08:11:12;;;;;;;4.07;2.55;;;;;;;9.55;100.00;98407.22;10289128;28;20054;-64
2023/12/13 08:16:13;;;;;;;7.43;2.47;;;;;;;9.63;100.00;98408.22;10300295;28;20535;-62
2023/12/13 08:21:15;;;;;;;5.38;2.47;;;;;;;9.72;100.00;98407.25;10301240;28;20128;-64
2023/12/13 08:26:17;;;;;;;3.58;2.03;;;;;;;9.77;100.00;98407.56;10294965;28;20073;-63
2023/12/13 08:31:21;;;;;;;6.00;2.90;;;;;;;9.84;100.00;98405.13;10280442;28;20750;-64
2023/12/13 08:36:28;;;;;;;4.75;2.08;;;;;;;9.84;100.00;98400.63;10278750;28;20050;-62
2023/12/13 08:41:29;;;;;;;5.32;2.15;;;;;;;9.89;100.00;98416.06;10290699;28;20057;-61
2023/12/13 08:46:31;;;;;;;4.68;2.05;;;;;;;9.85;100.00;98412.09;10300416;28;20057;-61
2023/12/13 08:51:32;;;;;;;5.53;2.20;;;;;;;9.83;100.00;98419.38;10290773;28;20050;-62
2023/12/13 08:56:34;;;;;;;4.32;3.17;;;;;;;9.82;100.00;98418.56;10289707;28;20141;-63
2023/12/13 09:01:35;;;;;;;6.80;2.92;;;;;;;9.71;100.00;98401.13;10289717;28;20101;-61
2023/12/13 09:06:37;;;;;;;6.05;3.88;;;;;;;9.80;100.00;98409.91;10299449;28;20053;-63
2023/12/13 09:11:39;;;;;;;7.05;4.80;;;;;;;9.69;100.00;98402.25;10288197;28;20795;-62
2023/12/13 09:16:41;;;;;;;7.25;5.50;;;;;;;9.73;100.00;98417.72;10298907;28;20058;-62
2023/12/13 09:21:42;;;;;;;6.63;5.22;;;;;;;9.63;100.00;98402.91;10287987;28;20875;-63
2023/12/13 09:26:44;;;;;;;6.75;5.75;;;;;;;9.76;100.00;98419.22;10301617;28;20539;-61
2023/12/13 09:31:47;;;;;;;6.15;5.55;;;;;;;9.81;100.00;98419.56;10289894;28;20137;-63
2023/12/13 09:36:49;;;;;;;7.30;5.00;;;;;;;9.91;100.00;98411.44;10297225;28;20054;-63
2023/12/13 09:42:02;;;;;;;5.45;4.97;;;;;;;9.97;100.00;98409.94;10300527;28;20120;-62
2023/12/13 09:47:07;;;;;;;5.25;4.18;;;;;;;10.29;100.00;98416.28;10298834;28;20050;-62
2023/12/13 09:52:10;;;;;;;5.47;4.38;;;;;;;10.51;100.00;98415.63;10281750;28;20086;-62
2023/12/13 09:57:12;;;;;;;4.65;3.67;;;;;;;10.61;100.00;98418.09;10307217;28;20054;-63
2023/12/13 10:02:16;;;;;;;5.45;4.22;;;;;;;10.86;100.00;98420.72;10282645;28;20050;-63
2023/12/13 10:07:19;;;;;;;3.25;2.78;;;;;;;10.82;100.00;98433.53;10291121;28;20115;-62
2023/12/13 10:12:22;;;;;;;4.90;3.00;;;;;;;10.69;100.00;98430.56;10293549;28;20057;-62
2023/12/13 10:17:25;;;;;;;5.80;2.90;;;;;;;10.51;100.00;98426.28;10281820;28;20058;-64
2023/12/13 10:22:26;;;;;;;4.95;2.20;;;;;;;10.51;100.00;98423.59;10298454;28;20054;-63
2023/12/13 10:27:28;;;;;;;2.97;2.28;;;;;;;10.55;100.00;98418.78;10292320;28;20061;-62
2023/12/13 10:32:29;;;;;;;2.05;1.83;;;;;;;10.52;100.00;98416.44;10293400;28;20287;-60
2023/12/13 10:37:34;;;;;;;3.78;1.52;;;;;;;10.46;100.00;98423.25;10285709;28;20235;-65
2023/12/13 10:42:37;;;;;;;3.20;1.83;;;;;;;10.41;100.00;98429.09;10298893;28;20062;-63
2023/12/13 10:47:45;;;;;;;5.32;1.90;;;;;;;10.36;100.00;98412.81;10296317;28;20081;-62
2023/12/13 10:52:49;;;;;;;3.78;2.03;;;;;;;10.71;100.00;98413.44;10294738;28;20054;-63
2023/12/13 10:57:51;;;;;;;2.80;1.97;;;;;;;10.86;100.00;98404.75;10297490;28;20046;-63
2023/12/13 11:03:17;;;;;;;3.85;2.05;;;;;;;10.83;100.00;98410.41;10296271;28;20572;-63
2023/12/13 11:08:20;;;;;;;6.77;2.60;;;;;;;10.77;100.00;98402.09;10290455;28;20129;-62
2023/12/13 11:13:26;;;;;;;2.92;1.67;;;;;;;10.88;100.00;98411.53;10293451;28;20118;-62
2023/12/13 11:18:28;;;;;;;3.25;2.05;;;;;;;10.95;100.00;98407.22;10284569;28;21152;-59
2023/12/13 11:23:31;;;;;;;2.83;1.75;;;;;;;10.96;100.00;98405.41;10276854;28;20499;-60
2023/12/13 11:28:34;;;;;;;3.45;1.60;;;;;;;11.02;99.49;98415.34;10294554;28;20054;-65
2023/12/13 11:33:36;;;;;;;1.80;1.25;;;;;;;11.12;98.25;98416.00;10275813;28;20050;-63
2023/12/13 11:38:38;;;;;;;2.25;1.23;;;;;;;11.67;96.42;98429.38;10294359;28;20046;-64
2023/12/13 11:43:40;;;;;;;2.58;1.15;;;;;;;11.67;90.22;98426.72;10293783;28;20054;-65
2023/12/13 11:48:43;;;;;;;5.22;1.42;;;;;;;11.36;92.06;98421.38;10290837;28;20070;-65
2023/12/13 11:53:45;;;;;;;3.88;1.25;;;;;;;11.38;92.91;98414.88;10295817;28;20046;-64
2023/12/13 11:58:49;;;;;;;3.00;1.20;;;;;;;11.53;93.86;98420.31;10295089;28;20067;-64
2023/12/13 12:03:51;;;;;;;3.97;1.48;;;;;;;11.48;95.05;98418.16;10297321;28;20504;-63
2023/12/13 12:08:53;;;;;;;1.98;1.30;;;;;;;11.52;94.61;98410.66;10297356;28;20066;-64
2023/12/13 12:13:55;;;;;;;2.85;1.50;;;;;;;11.55;94.31;98407.63;10288536;28;20064;-61
2023/12/13 12:18:57;;;;;;;2.15;1.25;;;;;;;11.92;93.21;98403.41;10293490;28;20704;-63
2023/12/13 12:23:59;;;;;;;3.65;2.17;;;;;;;11.83;92.74;98401.81;10286257;28;20506;-64
2023/12/13 12:29:01;;;;;;;3.42;1.20;;;;;;;11.71;91.88;98395.22;10303574;28;20502;-62
2023/12/13 12:34:03;;;;;;;5.43;2.10;;;;;;;11.74;91.76;98406.38;10283822;28;20057;-65
2023/12/13 12:39:04;;;;;;;3.60;1.88;;;;;;;11.67;92.80;98405.41;10303902;28;20057;-62
2023/12/13 12:44:07;;;;;;;9.30;6.15;;;;;;;11.73;97.20;98404.69;10284361;28;20046;-64
2023/12/13 12:49:10;;;;;;;5.68;1.80;;;;;;;11.64;92.94;98398.56;10303562;28;20467;-62
2023/12/13 12:54:16;;;;;;;3.63;1.88;;;;;;;11.54;91.29;98413.13;10290262;28;20667;-62
2023/12/13 12:59:17;;;;;;;5.25;2.10;;;;;;;11.51;94.06;98403.66;10290164;28;20424;-65
2023/12/13 13:04:20;;;;;;;3.20;1.20;;;;;;;11.71;92.39;98409.38;10286394;28;20062;-61
2023/12/13 13:09:22;;;;;;;3.05;1.17;;;;;;;11.55;92.70;98404.97;10285874;28;20038;-63
2023/12/13 13:14:25;;;;;;;3.30;2.13;;;;;;;12.07;88.62;98400.84;10302634;28;20303;-63
2023/12/13 13:19:29;;;;;;;3.42;1.05;;;;;;;12.46;86.27;98401.66;10289140;28;20050;-63
2023/12/13 13:24:31;;;;;;;2.72;1.50;;;;;;;12.19;88.37;98398.59;10277730;28;20050;-62
2023/12/13 13:29:34;;;;;;;3.40;1.35;;;;;;;11.88;88.47;98415.44;10286247;28;20038;-65
2023/12/13 13:34:39;;;;;;;2.60;1.50;;;;;;;11.65;90.77;98407.44;10306013;28;20161;-63
2023/12/13 13:39:41;;;;;;;3.35;1.60;;;;;;;11.43;91.25;98401.84;10286049;28;20124;-63
2023/12/13 13:44:43;;;;;;;3.42;1.10;;;;;;;11.34;90.91;98402.09;10279240;28;20054;-64
2023/12/13 13:49:44;;;;;;;1.90;1.00;;;;;;;11.38;91.90;98398.06;10293001;28;20483;-65
2023/12/13 13:54:46;;;;;;;2.10;0.70;;;;;;;11.40;91.51;98396.06;10280169;28;20061;-64
2023/12/13 13:59:48;;;;;;;2.45;1.27;;;;;;;11.38;91.09;98384.72;10292277;28;20068;-64
2023/12/13 14:04:50;;;;;;;3.25;1.30;;;;;;;11.48;91.52;98402.19;10292206;28;20139;-63
2023/12/13 14:09:51;;;;;;;2.03;0.70;;;;;;;11.50;91.40;98402.00;10306417;28;20062;-63
2023/12/13 14:14:56;;;;;;;2.28;1.40;;;;;;;11.47;91.03;98402.34;10299507;28;20449;-65
2023/12/13 14:19:59;;;;;;;2.35;0.73;;;;;;;11.53;92.56;98404.31;10297992;28;20058;-64
2023/12/13 14:25:01;;;;;;;3.65;1.20;;;;;;;11.43;90.94;98403.69;10299682;28;20058;-62
2023/12/13 14:30:03;;;;;;;5.57;1.27;;;;;;;11.43;91.87;98412.50;10288759;28;20061;-64
2023/12/13 14:35:06;;;;;;;2.90;1.33;;;;;;;11.29;90.02;98418.59;10298779;28;20682;-63
2023/12/13 14:40:13;;;;;;;3.58;1.08;;;;;;;11.29;90.52;98416.75;10291324;28;20180;-63
2023/12/13 14:45:15;;;;;;;3.70;1.35;;;;;;;11.10;90.90;98401.19;10295966;28;20100;-63
2023/12/13 14:50:17;;;;;;;2.63;1.10;;;;;;;11.15;91.84;98417.47;10297172;28;20066;-65
2023/12/13 14:55:18;;;;;;;6.57;2.15;;;;;;;11.06;91.82;98421.97;10294956;28;20121;-63
2023/12/13 15:00:20;;;;;;;5.22;4.72;;;;;;;11.08;92.75;98437.78;10301020;28;20477;-64
2023/12/13 15:05:21;;;;;;;8.95;8.15;;;;;;;11.09;92.87;98431.47;10296563;28;20132;-63
2023/12/13 15:10:23;;;;;;;5.78;4.97;;;;;;;11.03;93.08;98427.66;10294203;28;20053;-63
2023/12/13 15:15:25;;;;;;;4.40;2.03;;;;;;;10.98;93.52;98439.84;10281976;28;20058;-64
2023/12/13 15:20:27;;;;;;;4.70;3.20;;;;;;;10.90;94.28;98454.81;10304023;28;20061;-66
2023/12/13 15:25:32;;;;;;;3.20;1.58;;;;;;;10.85;94.35;98456.31;10297002;28;20060;-62
2023/12/13 15:30:34;;;;;;;10.23;9.32;;;;;;;10.78;95.46;98453.50;10291377;28;20550;-63
2023/12/13 15:35:36;;;;;;;4.15;1.73;;;;;;;10.74;95.13;98457.50;10296489;28;20103;-63
2023/12/13 15:40:40;;;;;;;21.05;17.27;;;;;;;10.71;95.13;98471.16;10291691;28;20047;-64
2023/12/13 15:45:41;;;;;;;26.48;18.67;;;;;;;10.75;95.79;98478.63;10294341;28;20042;-62
2023/12/13 15:50:43;;;;;;;11.45;8.57;;;;;;;10.73;94.81;98490.44;10298323;28;20054;-63
2023/12/13 15:55:44;;;;;;;8.07;5.22;;;;;;;10.72;94.99;98494.06;10297913;28;20227;-63
2023/12/13 16:00:46;;;;;;;3.55;2.20;;;;;;;10.63;95.04;98487.09;10290703;28;20042;-63
2023/12/13 16:05:49;;;;;;;3.15;1.27;;;;;;;10.64;94.48;98497.56;10303441;28;20053;-64
2023/12/13 16:10:51;;;;;;;2.85;1.30;;;;;;;10.56;94.29;98487.78;10285830;28;20141;-62
2023/12/13 16:15:58;;;;;;;4.88;2.00;;;;;;;10.61;94.47;98506.75;10300670;28;20623;-62
2023/12/13 16:21:01;;;;;;;5.28;3.15;;;;;;;10.59;94.38;98508.72;10272101;28;20133;-63
2023/12/13 16:26:08;;;;;;;3.70;2.78;;;;;;;10.58;95.43;98514.22;10279091;28;20443;-62
2023/12/13 16:31:10;;;;;;;3.33;2.38;;;;;;;10.57;95.60;98512.56;10300295;28;20058;-63
2023/12/13 16:36:18;;;;;;;4.90;3.30;;;;;;;10.58;95.05;98523.03;10295338;28;20057;-64
2023/12/13 16:41:19;;;;;;;8.50;6.05;;;;;;;10.54;94.40;98535.00;10294653;28;20054;-62
2023/12/13 16:46:23;;;;;;;5.85;4.72;;;;;;;10.50;94.70;98532.84;10296762;28;20050;-62
2023/12/13 16:51:25;;;;;;;7.45;6.68;;;;;;;10.51;95.28;98548.66;10275403;28;20068;-63
2023/12/13 16:56:28;;;;;;;6.35;4.15;;;;;;;10.48;96.01;98540.13;10298909;28;20046;-62
2023/12/13 17:01:30;;;;;;;7.82;2.95;;;;;;;10.57;95.32;98555.97;10290325;28;20054;-62
2023/12/13 17:06:32;;;;;;;6.68;3.67;;;;;;;10.55;94.34;98565.09;10292981;28;20057;-64
2023/12/13 17:11:33;;;;;;;6.50;4.72;;;;;;;10.59;95.68;98569.91;10295117;28;20145;-65
2023/12/13 17:16:35;;;;;;;5.40;4.45;;;;;;;10.66;97.81;98575.44;10296020;28;20113;-64
2023/12/13 17:21:37;;;;;;;9.70;8.38;;;;;;;10.47;96.39;98560.59;10295034;28;20058;-63
2023/12/13 17:26:42;;;;;;;12.70;8.10;;;;;;;10.70;97.61;98592.72;10298602;28;20149;-65
2023/12/13 17:31:45;;;;;;;8.05;7.10;;;;;;;10.69;97.00;98592.88;10292469;28;20057;-63
2023/12/13 17:36:49;;;;;;;8.20;6.78;;;;;;;10.71;97.32;98599.69;10299911;28;20057;-65
2023/12/13 17:41:51;;;;;;;6.78;3.95;;;;;;;10.78;96.93;98613.19;10307278;28;20112;-64
2023/12/13 17:46:52;;;;;;;6.38;4.45;;;;;;;10.73;97.54;98607.53;10310284;28;20196;-65
2023/12/13 17:51:56;;;;;;;5.30;3.40;;;;;;;10.76;97.89;98617.84;10311700;28;20060;-65
2023/12/13 17:56:58;;;;;;;6.22;3.28;;;;;;;10.60;98.45;98592.88;10289899;28;20158;-64
2023/12/13 18:01:59;;;;;;;7.50;3.83;;;;;;;10.84;98.11;98641.81;10307886;28;20046;-64
2023/12/13 18:07:01;;;;;;;5.82;3.13;;;;;;;10.58;97.07;98648.09;10288022;28;20837;-65
2023/12/13 18:12:03;;;;;;;5.35;2.50;;;;;;;10.52;94.92;98658.53;10298038;28;20132;-66
2023/12/13 18:17:04;;;;;;;3.97;1.88;;;;;;;10.44;94.58;98646.06;10282678;28;20073;-64
2023/12/13 18:22:06;;;;;;;5.82;3.50;;;;;;;10.37;94.69;98666.31;10298803;28;20050;-63
2023/12/13 18:27:07;;;;;;;4.03;2.30;;;;;;;10.24;98.96;98667.56;10302144;28;20056;-64
2023/12/13 18:32:10;;;;;;;3.47;1.85;;;;;;;10.29;96.18;98658.28;10297019;28;20060;-64
2023/12/13 18:37:12;;;;;;;3.85;2.40;;;;;;;10.30;89.89;98670.56;10302110;28;20077;-66
2023/12/13 18:42:13;;;;;;;3.20;1.13;;;;;;;10.29;91.91;98660.94;10304728;28;20055;-64
2023/12/13 18:47:15;;;;;;;2.60;1.33;;;;;;;10.37;93.30;98667.16;10301221;28;20209;-65
2023/12/13 18:52:16;;;;;;;4.63;1.88;;;;;;;10.42;93.07;98669.34;10298781;28;20535;-65
2023/12/13 18:57:19;;;;;;;4.30;1.70;;;;;;;10.46;92.63;98680.47;10301291;28;20043;-66
2023/12/13 19:02:24;;;;;;;3.90;1.33;;;;;;;10.48;93.18;98687.31;10303341;28;20058;-64
2023/12/13 19:07:25;;;;;;;4.03;2.60;;;;;;;10.37;92.81;98693.75;10286483;28;20046;-68
2023/12/13 19:12:28;;;;;;;3.28;2.50;;;;;;;10.39;93.83;98701.56;10297007;28;20089;-69
2023/12/13 19:17:30;;;;;;;3.78;1.90;;;;;;;10.26;93.70;98702.81;10295090;28;20145;-71
2023/12/13 19:22:32;;;;;;;4.35;2.25;;;;;;;10.25;93.15;98701.16;10291337;28;20661;-68
2023/12/13 19:27:33;;;;;;;4.18;1.77;;;;;;;10.28;94.46;98734.56;10292440;28;20054;-67
2023/12/13 19:32:35;;;;;;;3.90;2.00;;;;;;;10.04;93.69;98730.78;10287277;28;20702;-68
2023/12/13 19:37:38;;;;;;;4.50;2.35;;;;;;;10.01;95.25;98754.19;10299360;28;20047;-67
2023/12/13 19:42:44;;;;;;;2.65;2.38;;;;;;;9.89;94.72;98727.88;10288972;28;20581;-67
2023/12/13 19:47:48;;;;;;;4.78;3.83;;;;;;;10.05;92.05;98755.53;10288451;28;20061;-69
2023/12/13 19:52:49;;;;;;;4.30;3.07;;;;;;;10.15;94.57;98771.38;10299162;28;20070;-68
2023/12/13 19:57:51;;;;;;;4.90;3.10;;;;;;;10.13;93.40;98776.03;10304418;28;20153;-67
2023/12/13 20:02:53;;;;;;;7.32;2.67;;;;;;;9.95;94.65;98794.69;10297135;28;20120;-67
2023/12/13 20:08:01;;;;;;;5.10;2.67;;;;;;;9.94;95.21;98798.31;10304542;28;20519;-67
2023/12/13 20:13:03;;;;;;;6.40;2.92;;;;;;;9.97;94.66;98798.00;10301658;28;20130;-67
2023/12/13 20:18:04;;;;;;;3.67;2.40;;;;;;;9.96;94.00;98793.69;10299111;28;20062;-68
2023/12/13 20:23:06;;;;;;;4.00;2.30;;;;;;;9.85;94.31;98800.94;10281319;28;20058;-67
2023/12/13 20:28:10;;;;;;;3.60;2.50;;;;;;;9.88;94.26;98811.25;10286805;28;20096;-68
2023/12/13 20:33:11;;;;;;;5.88;3.10;;;;;;;9.93;94.42;98823.25;10296769;28;20692;-67
2023/12/13 20:38:15;;;;;;;5.40;2.80;;;;;;;9.84;92.81;98823.16;10294911;28;20480;-67
2023/12/13 20:43:19;;;;;;;4.30;2.75;;;;;;;9.87;94.18;98830.00;10296299;28;21046;-67
2023/12/13 20:48:23;;;;;;;7.05;3.40;;;;;;;9.87;94.12;98836.16;10288993;28;20053;-67
2023/12/13 20:53:33;;;;;;;9.30;7.25;;;;;;;9.84;93.51;98836.47;10301504;28;20060;-67
2023/12/13 20:58:37;;;;;;;11.40;8.98;;;;;;;9.84;94.75;98843.59;10297624;28;20423;-70
2023/12/13 21:03:39;;;;;;;9.85;8.63;;;;;;;9.78;93.53;98863.66;10303631;28;20081;-67
2023/12/13 21:08:42;;;;;;;9.93;8.90;;;;;;;9.77;93.72;98869.13;10293069;28;20765;-68
2023/12/13 21:13:43;;;;;;;10.98;7.15;;;;;;;9.72;93.95;98867.75;10293856;28;20388;-69
2023/12/13 21:18:46;;;;;;;10.55;7.15;;;;;;;9.72;94.43;98875.72;10296858;28;20046;-68
2023/12/13 21:23:47;;;;;;;7.82;5.85;;;;;;;9.75;94.91;98881.72;10290887;28;20050;-68
2023/12/13 21:28:51;;;;;;;6.77;4.90;;;;;;;9.66;94.75;98888.78;10282470;28;20074;-68
2023/12/13 21:33:53;;;;;;;7.85;5.25;;;;;;;9.64;94.87;98898.75;10296352;28;20193;-69
2023/12/13 21:38:56;;;;;;;7.50;6.10;;;;;;;9.46;94.53;98886.25;10294430;28;20092;-68
2023/12/13 21:43:59;;;;;;;8.45;6.57;;;;;;;9.59;94.96;98912.44;10295674;28;20050;-68
2023/12/13 21:49:02;;;;;;;9.85;6.72;;;;;;;9.63;95.25;98923.63;10296174;28;20049;-68
2023/12/13 21:54:07;;;;;;;;;;;;;;;9.67;95.38;98935.63;10297739;28;20057;-67
2023/12/13 21:59:09;;;;;;;8.73;7.90;;;;;;;9.63;94.75;98944.88;10276012;28;19926;-68
2023/12/13 22:04:11;;;;;;;8.65;7.05;;;;;;;9.61;95.58;98941.53;10295238;28;20055;-67
2023/12/13 22:09:15;;;;;;;9.82;7.32;;;;;;;9.62;95.04;98953.84;10274788;28;20068;-67
2023/12/13 22:14:18;;;;;;;7.60;6.32;;;;;;;9.61;94.85;98960.13;10305004;28;20038;-67
2023/12/13 22:24:41;;;;;;;7.25;6.55;;;;;;;9.55;95.54;98975.69;10308310;28;20062;-68
2023/12/13 22:29:44;;;;;;;8.23;6.78;;;;;;;9.48;96.69;98979.91;10308464;28;20046;-70
2023/12/13 22:34:45;;;;;;;7.60;6.78;;;;;;;9.50;96.46;98988.59;10308643;28;20069;-68
2023/12/13 22:39:47;;;;;;;8.43;6.93;;;;;;;9.47;96.70;98988.88;10288767;28;20050;-67
2023/12/13 22:44:48;;;;;;;7.95;6.85;;;;;;;9.45;96.03;98995.31;10299354;28;20149;-67
2023/12/13 22:49:50;;;;;;;7.45;6.45;;;;;;;9.38;95.95;99005.66;10299307;28;20164;-67
2023/12/13 22:54:59;;;;;;;8.40;6.50;;;;;;;9.31;96.21;98993.97;10299703;28;20307;-69
2023/12/13 23:00:00;;;;;;;8.77;7.32;;;;;;;9.41;95.74;99016.00;10293463;28;20217;-68
2023/12/13 23:05:04;;;;;;;7.38;6.68;;;;;;;9.40;96.48;99030.28;10303812;28;20511;-69
2023/12/13 23:10:07;;;;;;;9.13;7.05;;;;;;;9.30;95.74;99030.31;10286332;28;20524;-68
2023/12/13 23:15:09;;;;;;;7.50;5.95;;;;;;;9.25;95.99;99029.06;10296807;28;20054;-67
2023/12/13 23:20:11;;;;;;;7.38;6.53;;;;;;;9.29;95.38;99047.25;10297772;28;20082;-68
2023/12/13 23:25:13;;;;;;;9.05;6.65;;;;;;;9.24;95.76;99051.31;10279166;28;20046;-69
2023/12/13 23:30:15;;;;;;;10.48;8.48;;;;;;;9.23;95.53;99054.94;10296013;28;20054;-67
2023/12/13 23:35:20;;;;;;;9.25;7.90;;;;;;;9.15;95.61;99053.00;10295510;28;20635;-67